Etusivu
METAR-TAF:

METAR-TAF

Lentoasemat :

Kirkkoniemi, Norja

Leveyspiiri: 69-44N, Pituuspiiri: 029-54E, korkeus merenpinnasta: 9 m

Tämänhetkinen sää

Tämä raportti tehtiin 27 minuuttia sitten, kello 18.20 UTC
Tuuli 8 kn idästä
Lämpötila 11°C
Kosteus 87%
Ilmanpaine 1027 hPa
Näkyvyys 10 km tai enemmän
Hajanaisia pilviä 900 ft:n korkeudessa
Hajonneita pilviä 1700 ft:n korkeudessa

METAR: ENKR 221820Z 09008KT 9999 SCT009 BKN017 11/09 Q1027 RMK WIND 731FT 08009KT

Aika: 20:47 (18:47 UTC)

Sääennuste

Tämä raportti tehtiin 1 tunti ja 47 minuuttia sitten, kello 17.00 UTC
Ennuste voimassa 22. päivästä klo 18 UTC - 23. päivään klo 03 UTC
Tuuli 8 kn idästä/koillisesta
Näkyvyys 10 km tai enemmän
Muutamia pilviä 1200 ft:n korkeudessa
Hajonneita pilviä 2000 ft:n korkeudessa
Ajoittain
22. päivästä klo 18 UTC - 23. päivään klo 03 UTC
Hajonneita pilviä 1200 ft:n korkeudessa

TAF: ENKR 221700Z 2218/2303 06008KT 9999 FEW012 BKN020 TEMPO 2218/2303 BKN012

Säähavainnot ja -ennusteet yli 4000 lentoasemalta (METAR- ja TAF-raportit).

Käytössä olevat sääasemat on merkitty karttaan keltaisilla ja punaisilla pisteillä.

Aseta hiiri pisteen päälle nähdäksesi sääaseman nimen.

Klikkaa sitten nähdäksesi säähavainnot ja -ennusteet.

Kartan vaihtaminen: klikkaa mustalla rastilla varustettuja vihreitä pisteitä, niin voit zoomata sisään; viivalla varustettua vihreää pistettä, niin voit zoomata ulos tai vihreitä nuolia, niin pääset viereisille kartoille.


METAR-TAF: